sensor_id;sensor_type;location;lat;lon;timestamp;P1;durP1;ratioP1;P2;durP2;ratioP2
63906;SDS011;50075;49.484;11.238;2022-10-12T00:00:17;58.60;;;15.90;;
63906;SDS011;50075;49.484;11.238;2022-10-12T00:02:42;46.28;;;14.77;;
63906;SDS011;50075;49.484;11.238;2022-10-12T00:05:08;44.35;;;14.23;;
63906;SDS011;50075;49.484;11.238;2022-10-12T00:07:34;41.97;;;13.10;;
63906;SDS011;50075;49.484;11.238;2022-10-12T00:09:59;46.03;;;14.65;;
63906;SDS011;50075;49.484;11.238;2022-10-12T00:12:25;49.70;;;14.82;;
63906;SDS011;50075;49.484;11.238;2022-10-12T00:14:50;51.08;;;15.20;;
63906;SDS011;50075;49.484;11.238;2022-10-12T00:17:16;53.83;;;15.55;;
63906;SDS011;50075;49.484;11.238;2022-10-12T00:19:41;57.85;;;16.83;;
63906;SDS011;50075;49.484;11.238;2022-10-12T00:22:06;47.00;;;14.52;;
63906;SDS011;50075;49.484;11.238;2022-10-12T00:24:32;58.50;;;16.52;;
63906;SDS011;50075;49.484;11.238;2022-10-12T00:26:57;50.28;;;16.88;;
63906;SDS011;50075;49.484;11.238;2022-10-12T00:29:23;52.25;;;16.65;;
63906;SDS011;50075;49.484;11.238;2022-10-12T00:31:48;59.70;;;16.65;;
63906;SDS011;50075;49.484;11.238;2022-10-12T00:34:13;51.15;;;16.20;;
63906;SDS011;50075;49.484;11.238;2022-10-12T00:36:39;61.78;;;17.40;;
63906;SDS011;50075;49.484;11.238;2022-10-12T00:39:05;53.60;;;16.08;;
63906;SDS011;50075;49.484;11.238;2022-10-12T00:41:34;49.25;;;13.13;;
63906;SDS011;50075;49.484;11.238;2022-10-12T00:44:02;49.55;;;15.68;;
63906;SDS011;50075;49.484;11.238;2022-10-12T00:46:29;57.88;;;16.85;;
63906;SDS011;50075;49.484;11.238;2022-10-12T00:49:13;54.58;;;16.50;;
63906;SDS011;50075;49.484;11.238;2022-10-12T00:51:44;68.22;;;17.85;;
63906;SDS011;50075;49.484;11.238;2022-10-12T00:54:16;54.00;;;16.45;;
63906;SDS011;50075;49.484;11.238;2022-10-12T00:56:48;65.15;;;17.15;;
63906;SDS011;50075;49.484;11.238;2022-10-12T00:59:21;56.13;;;17.00;;
63906;SDS011;50075;49.484;11.238;2022-10-12T01:01:51;58.50;;;16.90;;
63906;SDS011;50075;49.484;11.238;2022-10-12T01:04:17;50.17;;;16.55;;
63906;SDS011;50075;49.484;11.238;2022-10-12T01:06:43;53.63;;;16.23;;
63906;SDS011;50075;49.484;11.238;2022-10-12T01:09:08;59.53;;;16.50;;
63906;SDS011;50075;49.484;11.238;2022-10-12T01:11:33;44.70;;;15.05;;
63906;SDS011;50075;49.484;11.238;2022-10-12T01:13:59;58.33;;;16.80;;
63906;SDS011;50075;49.484;11.238;2022-10-12T01:19:05;50.28;;;14.70;;
63906;SDS011;50075;49.484;11.238;2022-10-12T01:21:50;52.92;;;16.27;;
63906;SDS011;50075;49.484;11.238;2022-10-12T01:24:33;55.30;;;15.30;;
63906;SDS011;50075;49.484;11.238;2022-10-12T01:41:02;47.47;;;14.77;;
63906;SDS011;50075;49.484;11.238;2022-10-12T01:43:33;54.25;;;15.05;;
63906;SDS011;50075;49.484;11.238;2022-10-12T01:48:36;52.55;;;14.43;;
63906;SDS011;50075;49.484;11.238;2022-10-12T01:51:02;52.60;;;15.23;;
63906;SDS011;50075;49.484;11.238;2022-10-12T02:01:56;54.30;;;15.55;;
63906;SDS011;50075;49.484;11.238;2022-10-12T02:05:23;54.88;;;15.10;;
63906;SDS011;50075;49.484;11.238;2022-10-12T02:10:21;51.30;;;15.52;;
63906;SDS011;50075;49.484;11.238;2022-10-12T02:12:51;55.97;;;15.25;;
63906;SDS011;50075;49.484;11.238;2022-10-12T02:15:20;45.80;;;14.18;;
63906;SDS011;50075;49.484;11.238;2022-10-12T02:17:49;57.65;;;15.77;;
63906;SDS011;50075;49.484;11.238;2022-10-12T02:20:16;46.97;;;14.68;;
63906;SDS011;50075;49.484;11.238;2022-10-12T02:22:44;52.92;;;14.90;;
63906;SDS011;50075;49.484;11.238;2022-10-12T02:25:14;48.47;;;14.40;;
63906;SDS011;50075;49.484;11.238;2022-10-12T02:27:43;46.78;;;14.27;;
63906;SDS011;50075;49.484;11.238;2022-10-12T02:30:13;44.92;;;13.52;;
63906;SDS011;50075;49.484;11.238;2022-10-12T02:32:42;51.33;;;14.27;;
63906;SDS011;50075;49.484;11.238;2022-10-12T02:35:31;46.55;;;14.48;;
63906;SDS011;50075;49.484;11.238;2022-10-12T02:38:00;76.70;;;16.65;;
63906;SDS011;50075;49.484;11.238;2022-10-12T02:40:49;44.00;;;13.75;;
63906;SDS011;50075;49.484;11.238;2022-10-12T02:43:22;52.70;;;14.88;;
63906;SDS011;50075;49.484;11.238;2022-10-12T02:45:53;48.97;;;15.70;;
63906;SDS011;50075;49.484;11.238;2022-10-12T02:48:23;53.50;;;15.27;;
63906;SDS011;50075;49.484;11.238;2022-10-12T02:50:50;52.97;;;14.45;;
63906;SDS011;50075;49.484;11.238;2022-10-12T02:53:19;57.60;;;14.95;;
63906;SDS011;50075;49.484;11.238;2022-10-12T02:55:52;47.13;;;13.13;;
63906;SDS011;50075;49.484;11.238;2022-10-12T02:58:20;50.20;;;13.60;;
63906;SDS011;50075;49.484;11.238;2022-10-12T03:00:46;48.95;;;13.73;;
63906;SDS011;50075;49.484;11.238;2022-10-12T03:03:11;57.17;;;14.63;;
63906;SDS011;50075;49.484;11.238;2022-10-12T03:05:37;36.22;;;11.15;;
63906;SDS011;50075;49.484;11.238;2022-10-12T03:08:02;46.17;;;12.65;;
63906;SDS011;50075;49.484;11.238;2022-10-12T03:10:28;46.30;;;11.55;;
63906;SDS011;50075;49.484;11.238;2022-10-12T03:12:54;44.47;;;12.80;;
63906;SDS011;50075;49.484;11.238;2022-10-12T03:15:19;55.47;;;15.50;;
63906;SDS011;50075;49.484;11.238;2022-10-12T03:17:44;44.50;;;12.70;;
63906;SDS011;50075;49.484;11.238;2022-10-12T03:20:10;47.90;;;13.70;;
63906;SDS011;50075;49.484;11.238;2022-10-12T03:22:35;52.15;;;13.48;;
63906;SDS011;50075;49.484;11.238;2022-10-12T03:25:01;44.95;;;14.40;;
63906;SDS011;50075;49.484;11.238;2022-10-12T03:27:26;58.58;;;15.63;;
63906;SDS011;50075;49.484;11.238;2022-10-12T03:29:51;49.95;;;14.77;;
63906;SDS011;50075;49.484;11.238;2022-10-12T03:32:17;55.38;;;15.40;;
63906;SDS011;50075;49.484;11.238;2022-10-12T03:34:43;60.45;;;15.32;;
63906;SDS011;50075;49.484;11.238;2022-10-12T03:37:08;51.50;;;15.18;;
63906;SDS011;50075;49.484;11.238;2022-10-12T03:39:34;66.55;;;13.88;;
63906;SDS011;50075;49.484;11.238;2022-10-12T03:41:59;45.20;;;13.95;;
63906;SDS011;50075;49.484;11.238;2022-10-12T03:44:25;51.45;;;15.40;;
63906;SDS011;50075;49.484;11.238;2022-10-12T03:46:50;57.40;;;15.43;;
63906;SDS011;50075;49.484;11.238;2022-10-12T03:49:15;52.90;;;15.65;;
63906;SDS011;50075;49.484;11.238;2022-10-12T03:51:41;70.47;;;16.88;;
63906;SDS011;50075;49.484;11.238;2022-10-12T03:54:06;55.33;;;16.73;;
63906;SDS011;50075;49.484;11.238;2022-10-12T03:56:31;53.58;;;15.95;;
63906;SDS011;50075;49.484;11.238;2022-10-12T03:58:57;58.88;;;15.70;;
63906;SDS011;50075;49.484;11.238;2022-10-12T04:01:22;57.40;;;16.15;;
63906;SDS011;50075;49.484;11.238;2022-10-12T04:03:48;68.43;;;17.90;;
63906;SDS011;50075;49.484;11.238;2022-10-12T04:06:13;59.15;;;15.55;;
63906;SDS011;50075;49.484;11.238;2022-10-12T04:08:38;49.63;;;14.60;;
63906;SDS011;50075;49.484;11.238;2022-10-12T04:11:03;67.43;;;16.63;;
63906;SDS011;50075;49.484;11.238;2022-10-12T04:13:29;55.50;;;15.75;;
63906;SDS011;50075;49.484;11.238;2022-10-12T04:15:55;43.47;;;11.15;;
63906;SDS011;50075;49.484;11.238;2022-10-12T04:18:24;41.60;;;11.00;;
63906;SDS011;50075;49.484;11.238;2022-10-12T04:20:50;53.90;;;14.70;;
63906;SDS011;50075;49.484;11.238;2022-10-12T04:23:15;53.80;;;16.23;;
63906;SDS011;50075;49.484;11.238;2022-10-12T04:25:41;59.05;;;16.52;;
63906;SDS011;50075;49.484;11.238;2022-10-12T04:28:06;66.72;;;17.55;;
63906;SDS011;50075;49.484;11.238;2022-10-12T04:30:31;41.22;;;13.90;;
63906;SDS011;50075;49.484;11.238;2022-10-12T04:32:57;36.95;;;10.13;;
63906;SDS011;50075;49.484;11.238;2022-10-12T04:35:23;45.20;;;11.13;;
63906;SDS011;50075;49.484;11.238;2022-10-12T04:37:48;46.05;;;12.60;;
63906;SDS011;50075;49.484;11.238;2022-10-12T04:40:14;56.03;;;15.38;;
63906;SDS011;50075;49.484;11.238;2022-10-12T04:42:39;54.30;;;15.60;;
63906;SDS011;50075;49.484;11.238;2022-10-12T04:45:04;54.70;;;16.23;;
63906;SDS011;50075;49.484;11.238;2022-10-12T04:47:32;50.20;;;14.40;;
63906;SDS011;50075;49.484;11.238;2022-10-12T04:49:58;47.45;;;14.75;;
63906;SDS011;50075;49.484;11.238;2022-10-12T04:52:23;70.30;;;17.75;;
63906;SDS011;50075;49.484;11.238;2022-10-12T04:54:49;69.55;;;17.00;;
63906;SDS011;50075;49.484;11.238;2022-10-12T04:57:14;58.13;;;14.57;;
63906;SDS011;50075;49.484;11.238;2022-10-12T04:59:39;72.93;;;17.27;;
63906;SDS011;50075;49.484;11.238;2022-10-12T05:02:05;53.30;;;16.08;;
63906;SDS011;50075;49.484;11.238;2022-10-12T05:04:30;65.05;;;17.13;;
63906;SDS011;50075;49.484;11.238;2022-10-12T05:06:55;67.30;;;17.23;;
63906;SDS011;50075;49.484;11.238;2022-10-12T05:09:21;54.75;;;15.70;;
63906;SDS011;50075;49.484;11.238;2022-10-12T05:11:46;60.92;;;17.30;;
63906;SDS011;50075;49.484;11.238;2022-10-12T05:14:11;60.58;;;16.50;;
63906;SDS011;50075;49.484;11.238;2022-10-12T05:16:37;62.45;;;17.02;;
63906;SDS011;50075;49.484;11.238;2022-10-12T05:19:02;60.28;;;17.08;;
63906;SDS011;50075;49.484;11.238;2022-10-12T05:21:28;59.53;;;17.65;;
63906;SDS011;50075;49.484;11.238;2022-10-12T05:23:53;62.10;;;17.38;;
63906;SDS011;50075;49.484;11.238;2022-10-12T05:26:18;49.15;;;15.07;;
63906;SDS011;50075;49.484;11.238;2022-10-12T05:28:44;57.63;;;15.35;;
63906;SDS011;50075;49.484;11.238;2022-10-12T05:31:09;56.97;;;15.50;;
63906;SDS011;50075;49.484;11.238;2022-10-12T05:33:35;47.80;;;15.32;;
63906;SDS011;50075;49.484;11.238;2022-10-12T05:36:00;53.85;;;15.40;;
63906;SDS011;50075;49.484;11.238;2022-10-12T05:38:25;54.80;;;15.73;;
63906;SDS011;50075;49.484;11.238;2022-10-12T05:40:51;69.50;;;18.65;;
63906;SDS011;50075;49.484;11.238;2022-10-12T05:43:16;63.70;;;18.48;;
63906;SDS011;50075;49.484;11.238;2022-10-12T05:45:44;52.42;;;14.95;;
63906;SDS011;50075;49.484;11.238;2022-10-12T05:48:09;55.80;;;15.40;;
63906;SDS011;50075;49.484;11.238;2022-10-12T05:50:35;52.80;;;14.23;;
63906;SDS011;50075;49.484;11.238;2022-10-12T05:53:00;66.95;;;16.45;;
63906;SDS011;50075;49.484;11.238;2022-10-12T05:55:25;51.75;;;15.75;;
63906;SDS011;50075;49.484;11.238;2022-10-12T05:57:51;49.53;;;15.00;;
63906;SDS011;50075;49.484;11.238;2022-10-12T06:00:16;65.72;;;15.80;;
63906;SDS011;50075;49.484;11.238;2022-10-12T06:02:42;50.95;;;13.90;;
63906;SDS011;50075;49.484;11.238;2022-10-12T06:05:07;60.25;;;16.50;;
63906;SDS011;50075;49.484;11.238;2022-10-12T06:07:33;55.38;;;15.48;;
63906;SDS011;50075;49.484;11.238;2022-10-12T06:09:58;51.75;;;14.73;;
63906;SDS011;50075;49.484;11.238;2022-10-12T06:12:24;52.80;;;15.25;;
63906;SDS011;50075;49.484;11.238;2022-10-12T06:14:50;46.17;;;13.73;;
63906;SDS011;50075;49.484;11.238;2022-10-12T06:17:16;54.30;;;15.38;;
63906;SDS011;50075;49.484;11.238;2022-10-12T06:19:41;58.97;;;15.05;;
63906;SDS011;50075;49.484;11.238;2022-10-12T06:22:07;42.38;;;13.63;;
63906;SDS011;50075;49.484;11.238;2022-10-12T06:24:32;46.83;;;14.40;;
63906;SDS011;50075;49.484;11.238;2022-10-12T06:26:57;41.05;;;13.45;;
63906;SDS011;50075;49.484;11.238;2022-10-12T06:29:22;43.25;;;13.27;;
63906;SDS011;50075;49.484;11.238;2022-10-12T06:31:49;45.53;;;14.23;;
63906;SDS011;50075;49.484;11.238;2022-10-12T06:34:15;41.20;;;13.85;;
63906;SDS011;50075;49.484;11.238;2022-10-12T06:36:40;50.40;;;14.32;;
63906;SDS011;50075;49.484;11.238;2022-10-12T06:39:06;38.75;;;14.02;;
63906;SDS011;50075;49.484;11.238;2022-10-12T06:41:32;38.97;;;13.00;;
63906;SDS011;50075;49.484;11.238;2022-10-12T06:43:57;39.40;;;13.25;;
63906;SDS011;50075;49.484;11.238;2022-10-12T06:46:23;32.50;;;11.98;;
63906;SDS011;50075;49.484;11.238;2022-10-12T06:48:48;52.75;;;13.90;;
63906;SDS011;50075;49.484;11.238;2022-10-12T06:51:13;43.28;;;12.35;;
63906;SDS011;50075;49.484;11.238;2022-10-12T06:53:39;45.67;;;13.05;;
63906;SDS011;50075;49.484;11.238;2022-10-12T06:56:05;33.58;;;11.55;;
63906;SDS011;50075;49.484;11.238;2022-10-12T06:58:31;33.20;;;12.45;;
63906;SDS011;50075;49.484;11.238;2022-10-12T07:00:56;44.42;;;13.23;;
63906;SDS011;50075;49.484;11.238;2022-10-12T07:03:22;38.92;;;12.43;;
63906;SDS011;50075;49.484;11.238;2022-10-12T07:05:47;40.92;;;11.68;;
63906;SDS011;50075;49.484;11.238;2022-10-12T07:08:12;38.10;;;11.63;;
63906;SDS011;50075;49.484;11.238;2022-10-12T07:10:38;40.40;;;10.75;;
63906;SDS011;50075;49.484;11.238;2022-10-12T07:13:03;39.95;;;11.80;;
63906;SDS011;50075;49.484;11.238;2022-10-12T07:15:29;38.95;;;11.27;;
63906;SDS011;50075;49.484;11.238;2022-10-12T07:17:54;36.17;;;11.27;;
63906;SDS011;50075;49.484;11.238;2022-10-12T07:20:19;41.35;;;11.40;;
63906;SDS011;50075;49.484;11.238;2022-10-12T07:22:45;32.08;;;11.35;;
63906;SDS011;50075;49.484;11.238;2022-10-12T07:25:11;38.40;;;11.10;;
63906;SDS011;50075;49.484;11.238;2022-10-12T07:27:36;34.58;;;11.00;;
63906;SDS011;50075;49.484;11.238;2022-10-12T07:30:02;32.17;;;10.48;;
63906;SDS011;50075;49.484;11.238;2022-10-12T07:32:28;28.67;;;10.10;;
63906;SDS011;50075;49.484;11.238;2022-10-12T07:34:53;36.78;;;10.38;;
63906;SDS011;50075;49.484;11.238;2022-10-12T07:37:19;39.75;;;10.85;;
63906;SDS011;50075;49.484;11.238;2022-10-12T07:39:44;35.13;;;10.38;;
63906;SDS011;50075;49.484;11.238;2022-10-12T07:42:10;33.17;;;10.15;;
63906;SDS011;50075;49.484;11.238;2022-10-12T07:44:35;34.85;;;10.10;;
63906;SDS011;50075;49.484;11.238;2022-10-12T07:47:00;32.67;;;10.40;;
63906;SDS011;50075;49.484;11.238;2022-10-12T07:49:26;47.63;;;11.27;;
63906;SDS011;50075;49.484;11.238;2022-10-12T07:51:51;35.72;;;10.60;;
63906;SDS011;50075;49.484;11.238;2022-10-12T07:54:16;29.67;;;9.52;;
63906;SDS011;50075;49.484;11.238;2022-10-12T07:56:42;32.45;;;9.98;;
63906;SDS011;50075;49.484;11.238;2022-10-12T07:59:07;28.13;;;9.50;;
63906;SDS011;50075;49.484;11.238;2022-10-12T08:01:33;34.25;;;10.38;;
63906;SDS011;50075;49.484;11.238;2022-10-12T08:03:59;28.08;;;9.23;;
63906;SDS011;50075;49.484;11.238;2022-10-12T08:06:27;27.80;;;9.18;;
63906;SDS011;50075;49.484;11.238;2022-10-12T08:08:53;27.42;;;8.80;;
63906;SDS011;50075;49.484;11.238;2022-10-12T08:11:19;28.25;;;9.15;;
63906;SDS011;50075;49.484;11.238;2022-10-12T08:13:45;33.00;;;9.80;;
63906;SDS011;50075;49.484;11.238;2022-10-12T08:16:12;26.27;;;8.35;;
63906;SDS011;50075;49.484;11.238;2022-10-12T08:18:43;25.90;;;8.27;;
63906;SDS011;50075;49.484;11.238;2022-10-12T08:21:10;31.52;;;8.80;;
63906;SDS011;50075;49.484;11.238;2022-10-12T08:23:37;22.90;;;8.18;;
63906;SDS011;50075;49.484;11.238;2022-10-12T08:26:03;24.58;;;7.93;;
63906;SDS011;50075;49.484;11.238;2022-10-12T08:28:29;24.55;;;8.63;;
63906;SDS011;50075;49.484;11.238;2022-10-12T08:30:55;25.05;;;8.57;;
63906;SDS011;50075;49.484;11.238;2022-10-12T08:33:20;24.00;;;8.30;;
63906;SDS011;50075;49.484;11.238;2022-10-12T08:35:45;25.08;;;8.35;;
63906;SDS011;50075;49.484;11.238;2022-10-12T08:38:12;24.38;;;8.50;;
63906;SDS011;50075;49.484;11.238;2022-10-12T08:46:16;23.58;;;7.70;;
63906;SDS011;50075;49.484;11.238;2022-10-12T08:51:38;21.77;;;7.45;;
63906;SDS011;50075;49.484;11.238;2022-10-12T08:54:12;27.08;;;7.88;;
63906;SDS011;50075;49.484;11.238;2022-10-12T08:56:39;21.02;;;7.47;;
63906;SDS011;50075;49.484;11.238;2022-10-12T08:59:07;22.77;;;8.70;;
63906;SDS011;50075;49.484;11.238;2022-10-12T09:01:38;21.00;;;7.55;;
63906;SDS011;50075;49.484;11.238;2022-10-12T09:07:05;17.75;;;7.22;;
63906;SDS011;50075;49.484;11.238;2022-10-12T09:14:48;19.00;;;7.72;;
63906;SDS011;50075;49.484;11.238;2022-10-12T09:20:00;22.40;;;7.22;;
63906;SDS011;50075;49.484;11.238;2022-10-12T09:22:31;21.02;;;7.85;;
63906;SDS011;50075;49.484;11.238;2022-10-12T09:24:58;16.95;;;7.25;;
63906;SDS011;50075;49.484;11.238;2022-10-12T09:27:28;20.30;;;6.97;;
63906;SDS011;50075;49.484;11.238;2022-10-12T09:29:56;21.52;;;7.03;;
63906;SDS011;50075;49.484;11.238;2022-10-12T09:35:21;18.77;;;6.88;;
63906;SDS011;50075;49.484;11.238;2022-10-12T09:37:49;18.23;;;6.90;;
63906;SDS011;50075;49.484;11.238;2022-10-12T09:40:20;24.60;;;7.55;;
63906;SDS011;50075;49.484;11.238;2022-10-12T09:42:48;24.35;;;7.72;;
63906;SDS011;50075;49.484;11.238;2022-10-12T09:45:17;21.58;;;7.63;;
63906;SDS011;50075;49.484;11.238;2022-10-12T09:48:07;24.63;;;7.97;;
63906;SDS011;50075;49.484;11.238;2022-10-12T09:50:39;20.60;;;7.73;;
63906;SDS011;50075;49.484;11.238;2022-10-12T09:53:26;17.42;;;8.23;;
63906;SDS011;50075;49.484;11.238;2022-10-12T09:56:08;21.27;;;8.20;;
63906;SDS011;50075;49.484;11.238;2022-10-12T09:59:16;20.55;;;8.75;;
63906;SDS011;50075;49.484;11.238;2022-10-12T10:01:31;21.52;;;8.20;;
63906;SDS011;50075;49.484;11.238;2022-10-12T10:06:38;24.98;;;9.18;;
63906;SDS011;50075;49.484;11.238;2022-10-12T10:09:13;19.50;;;7.63;;
63906;SDS011;50075;49.484;11.238;2022-10-12T10:11:56;27.27;;;9.85;;
63906;SDS011;50075;49.484;11.238;2022-10-12T10:14:35;29.48;;;8.15;;
63906;SDS011;50075;49.484;11.238;2022-10-12T10:17:00;24.73;;;10.43;;
63906;SDS011;50075;49.484;11.238;2022-10-12T10:19:26;28.75;;;10.65;;
63906;SDS011;50075;49.484;11.238;2022-10-12T10:21:51;27.60;;;9.20;;
63906;SDS011;50075;49.484;11.238;2022-10-12T10:24:26;23.80;;;9.52;;
63906;SDS011;50075;49.484;11.238;2022-10-12T10:26:57;23.50;;;9.50;;
63906;SDS011;50075;49.484;11.238;2022-10-12T10:34:40;20.08;;;8.70;;
63906;SDS011;50075;49.484;11.238;2022-10-12T10:37:06;20.88;;;8.82;;
63906;SDS011;50075;49.484;11.238;2022-10-12T10:39:45;28.60;;;9.60;;
63906;SDS011;50075;49.484;11.238;2022-10-12T10:42:20;23.63;;;8.82;;
63906;SDS011;50075;49.484;11.238;2022-10-12T10:45:11;21.13;;;8.57;;
63906;SDS011;50075;49.484;11.238;2022-10-12T10:47:46;25.23;;;9.25;;
63906;SDS011;50075;49.484;11.238;2022-10-12T10:50:22;22.48;;;9.10;;
63906;SDS011;50075;49.484;11.238;2022-10-12T10:52:57;23.60;;;9.60;;
63906;SDS011;50075;49.484;11.238;2022-10-12T11:00:27;24.63;;;9.77;;
63906;SDS011;50075;49.484;11.238;2022-10-12T11:02:56;25.48;;;8.73;;
63906;SDS011;50075;49.484;11.238;2022-10-12T11:05:27;28.77;;;9.52;;
63906;SDS011;50075;49.484;11.238;2022-10-12T11:07:54;25.98;;;9.35;;
63906;SDS011;50075;49.484;11.238;2022-10-12T11:15:44;36.55;;;10.43;;
63906;SDS011;50075;49.484;11.238;2022-10-12T11:18:20;25.55;;;8.35;;
63906;SDS011;50075;49.484;11.238;2022-10-12T11:20:57;32.33;;;9.05;;
63906;SDS011;50075;49.484;11.238;2022-10-12T11:28:46;33.30;;;10.32;;
63906;SDS011;50075;49.484;11.238;2022-10-12T11:31:23;29.20;;;9.18;;
63906;SDS011;50075;49.484;11.238;2022-10-12T11:33:52;29.80;;;9.50;;
63906;SDS011;50075;49.484;11.238;2022-10-12T11:36:22;20.17;;;7.28;;
63906;SDS011;50075;49.484;11.238;2022-10-12T11:38:51;26.33;;;8.32;;
63906;SDS011;50075;49.484;11.238;2022-10-12T11:41:23;25.40;;;7.75;;
63906;SDS011;50075;49.484;11.238;2022-10-12T11:43:59;28.65;;;8.00;;
63906;SDS011;50075;49.484;11.238;2022-10-12T11:49:30;22.95;;;8.15;;
63906;SDS011;50075;49.484;11.238;2022-10-12T11:52:02;28.50;;;8.05;;
63906;SDS011;50075;49.484;11.238;2022-10-12T11:57:13;26.63;;;7.05;;
63906;SDS011;50075;49.484;11.238;2022-10-12T12:05:03;26.75;;;8.05;;
63906;SDS011;50075;49.484;11.238;2022-10-12T12:13:05;25.88;;;7.88;;
63906;SDS011;50075;49.484;11.238;2022-10-12T12:15:35;23.67;;;8.27;;
63906;SDS011;50075;49.484;11.238;2022-10-12T12:23:35;25.70;;;8.10;;
63906;SDS011;50075;49.484;11.238;2022-10-12T12:26:24;23.08;;;7.60;;
63906;SDS011;50075;49.484;11.238;2022-10-12T12:29:06;28.02;;;7.47;;
63906;SDS011;50075;49.484;11.238;2022-10-12T12:31:34;27.83;;;8.23;;
63906;SDS011;50075;49.484;11.238;2022-10-12T12:34:13;35.78;;;8.15;;
63906;SDS011;50075;49.484;11.238;2022-10-12T12:36:42;33.85;;;10.35;;
63906;SDS011;50075;49.484;11.238;2022-10-12T12:39:22;28.63;;;9.73;;
63906;SDS011;50075;49.484;11.238;2022-10-12T12:41:52;33.17;;;8.82;;
63906;SDS011;50075;49.484;11.238;2022-10-12T13:03:07;30.40;;;7.93;;
63906;SDS011;50075;49.484;11.238;2022-10-12T13:17:09;33.28;;;7.97;;
63906;SDS011;50075;49.484;11.238;2022-10-12T13:19:37;38.40;;;8.77;;
63906;SDS011;50075;49.484;11.238;2022-10-12T13:22:04;32.63;;;8.05;;
63906;SDS011;50075;49.484;11.238;2022-10-12T13:24:45;28.88;;;7.38;;
63906;SDS011;50075;49.484;11.238;2022-10-12T13:27:22;30.05;;;8.10;;
63906;SDS011;50075;49.484;11.238;2022-10-12T13:35:38;27.08;;;7.63;;
63906;SDS011;50075;49.484;11.238;2022-10-12T13:40:39;34.13;;;8.27;;
63906;SDS011;50075;49.484;11.238;2022-10-12T13:46:04;32.60;;;7.57;;
63906;SDS011;50075;49.484;11.238;2022-10-12T13:48:30;30.55;;;8.13;;
63906;SDS011;50075;49.484;11.238;2022-10-12T13:50:56;24.92;;;7.32;;
63906;SDS011;50075;49.484;11.238;2022-10-12T13:53:25;39.90;;;10.80;;
63906;SDS011;50075;49.484;11.238;2022-10-12T13:55:59;34.72;;;9.38;;
63906;SDS011;50075;49.484;11.238;2022-10-12T13:58:30;30.48;;;8.32;;
63906;SDS011;50075;49.484;11.238;2022-10-12T14:00:57;20.33;;;6.70;;
63906;SDS011;50075;49.484;11.238;2022-10-12T14:03:24;27.60;;;6.90;;
63906;SDS011;50075;49.484;11.238;2022-10-12T14:05:51;21.40;;;6.95;;
63906;SDS011;50075;49.484;11.238;2022-10-12T14:08:25;21.50;;;6.57;;
63906;SDS011;50075;49.484;11.238;2022-10-12T14:10:52;31.15;;;7.20;;
63906;SDS011;50075;49.484;11.238;2022-10-12T14:13:23;33.88;;;7.70;;
63906;SDS011;50075;49.484;11.238;2022-10-12T14:15:52;43.20;;;7.43;;
63906;SDS011;50075;49.484;11.238;2022-10-12T14:18:32;32.70;;;7.82;;
63906;SDS011;50075;49.484;11.238;2022-10-12T14:21:43;26.85;;;7.45;;
63906;SDS011;50075;49.484;11.238;2022-10-12T14:23:59;33.72;;;7.63;;
63906;SDS011;50075;49.484;11.238;2022-10-12T14:26:42;30.88;;;7.47;;
63906;SDS011;50075;49.484;11.238;2022-10-12T14:31:53;30.13;;;7.97;;
63906;SDS011;50075;49.484;11.238;2022-10-12T14:34:21;31.10;;;7.97;;
63906;SDS011;50075;49.484;11.238;2022-10-12T14:37:00;33.15;;;7.95;;
63906;SDS011;50075;49.484;11.238;2022-10-12T14:39:25;28.02;;;7.55;;
63906;SDS011;50075;49.484;11.238;2022-10-12T14:41:51;29.80;;;7.85;;
63906;SDS011;50075;49.484;11.238;2022-10-12T14:44:17;31.35;;;8.35;;
63906;SDS011;50075;49.484;11.238;2022-10-12T14:49:33;36.45;;;8.68;;
63906;SDS011;50075;49.484;11.238;2022-10-12T14:52:04;29.83;;;8.05;;
63906;SDS011;50075;49.484;11.238;2022-10-12T14:54:29;27.83;;;8.00;;
63906;SDS011;50075;49.484;11.238;2022-10-12T14:56:56;34.10;;;8.73;;
63906;SDS011;50075;49.484;11.238;2022-10-12T14:59:34;49.17;;;8.90;;
63906;SDS011;50075;49.484;11.238;2022-10-12T15:01:59;31.80;;;9.13;;
63906;SDS011;50075;49.484;11.238;2022-10-12T15:04:25;31.98;;;8.80;;
63906;SDS011;50075;49.484;11.238;2022-10-12T15:06:50;24.65;;;7.50;;
63906;SDS011;50075;49.484;11.238;2022-10-12T15:09:15;38.20;;;9.55;;
63906;SDS011;50075;49.484;11.238;2022-10-12T15:11:41;31.70;;;8.48;;
63906;SDS011;50075;49.484;11.238;2022-10-12T15:14:08;27.52;;;8.23;;
63906;SDS011;50075;49.484;11.238;2022-10-12T15:16:35;23.35;;;7.45;;
63906;SDS011;50075;49.484;11.238;2022-10-12T15:19:00;26.80;;;7.95;;
63906;SDS011;50075;49.484;11.238;2022-10-12T15:21:25;67.88;;;11.55;;
63906;SDS011;50075;49.484;11.238;2022-10-12T15:23:51;26.13;;;8.43;;
63906;SDS011;50075;49.484;11.238;2022-10-12T15:26:16;33.28;;;8.98;;
63906;SDS011;50075;49.484;11.238;2022-10-12T15:28:42;24.83;;;8.75;;
63906;SDS011;50075;49.484;11.238;2022-10-12T15:31:08;30.88;;;8.02;;
63906;SDS011;50075;49.484;11.238;2022-10-12T15:33:38;34.03;;;12.02;;
63906;SDS011;50075;49.484;11.238;2022-10-12T15:36:05;27.35;;;9.70;;
63906;SDS011;50075;49.484;11.238;2022-10-12T15:38:30;28.13;;;9.18;;
63906;SDS011;50075;49.484;11.238;2022-10-12T15:40:56;28.30;;;9.27;;
63906;SDS011;50075;49.484;11.238;2022-10-12T15:43:22;28.75;;;9.60;;
63906;SDS011;50075;49.484;11.238;2022-10-12T15:45:48;30.85;;;9.90;;
63906;SDS011;50075;49.484;11.238;2022-10-12T15:48:14;48.67;;;10.40;;
63906;SDS011;50075;49.484;11.238;2022-10-12T15:50:43;36.05;;;10.77;;
63906;SDS011;50075;49.484;11.238;2022-10-12T15:53:14;34.50;;;9.93;;
63906;SDS011;50075;49.484;11.238;2022-10-12T15:55:41;28.48;;;10.25;;
63906;SDS011;50075;49.484;11.238;2022-10-12T15:58:07;30.65;;;10.02;;
63906;SDS011;50075;49.484;11.238;2022-10-12T16:00:32;29.70;;;11.00;;
63906;SDS011;50075;49.484;11.238;2022-10-12T16:02:58;30.58;;;10.50;;
63906;SDS011;50075;49.484;11.238;2022-10-12T16:05:31;27.30;;;9.27;;
63906;SDS011;50075;49.484;11.238;2022-10-12T16:07:59;33.08;;;10.55;;
63906;SDS011;50075;49.484;11.238;2022-10-12T16:10:30;30.45;;;9.48;;
63906;SDS011;50075;49.484;11.238;2022-10-12T16:15:27;34.53;;;11.50;;
63906;SDS011;50075;49.484;11.238;2022-10-12T16:17:55;52.60;;;14.63;;
63906;SDS011;50075;49.484;11.238;2022-10-12T16:20:22;39.00;;;13.15;;
63906;SDS011;50075;49.484;11.238;2022-10-12T16:22:47;45.42;;;13.90;;
63906;SDS011;50075;49.484;11.238;2022-10-12T16:25:14;40.30;;;11.38;;
63906;SDS011;50075;49.484;11.238;2022-10-12T16:27:41;41.22;;;12.50;;
63906;SDS011;50075;49.484;11.238;2022-10-12T16:30:07;38.63;;;11.45;;
63906;SDS011;50075;49.484;11.238;2022-10-12T16:32:33;36.63;;;12.40;;
63906;SDS011;50075;49.484;11.238;2022-10-12T16:34:59;37.83;;;13.18;;
63906;SDS011;50075;49.484;11.238;2022-10-12T16:37:25;29.30;;;10.32;;
63906;SDS011;50075;49.484;11.238;2022-10-12T16:39:53;45.03;;;14.60;;
63906;SDS011;50075;49.484;11.238;2022-10-12T16:42:19;59.85;;;16.77;;
63906;SDS011;50075;49.484;11.238;2022-10-12T16:44:45;44.88;;;15.23;;
63906;SDS011;50075;49.484;11.238;2022-10-12T16:47:10;36.40;;;12.05;;